Airfield :
LOGIN :

Register | Disclaimer

   EN    FR    IT 

 










Legend :    VFR   Marginal VFR   IFR   Intensive IFR   Very Intensive IFR
Visi :
Ceiling :
>= 8 km
>= 3000ft
5 to 8 km
1000 to 3000 ft
1500m to 5 km
500 to 1000 ft
800 to 1500m
200 to 500 ft
< 800m
< 200 ft
Symbols :   Thunderstorms  Fog  Heavy snow  Heavy precipitations  Wind > 20 kt
SIGMETs :     Misc.  Thunderstorms  Icing  Turbulence  Mountain Waves  Volcanic Ashes







- Airport Elevation : 13 ft
- IATA code : SNR
- Download approach charts


LFRZ - St-Nazaire

CURRENT METAR :
  • 130530Z AUTO 09012KT 9999 SCT013 BKN064 BKN096 03/01 Q1008 TEMPO 4500 -RA BKN005

EXPIRED METARs :
  • 130500Z AUTO 09013KT 9999 FEW011/// OVC100/// ///TCU 03/01 Q1008 BECMG BKN040
  • 130430Z AUTO 08013KT CAVOK 03/01 Q1008 NOSIG
  • 130400Z AUTO 09014KT 9999 SCT042 OVC110 03/02 Q1008 BECMG BKN009
  • 130330Z AUTO 10014KT 9999 SCT011 OVC042 04/02 Q1009 BECMG BKN009
  • 130300Z AUTO 10008KT 7000 BKN011 BKN043 BKN100 04/02 Q1010 BECMG BKN009

TAF TAF LFRZ
Valid from the 13 at 06:00 until the 14 at 06:00 UTC


130500Z 1306/1406 08013KT 9999 BKN040
TEMPO 1306/1318 BKN010
TEMPO 1306/1312 4500 -RA BKN005
No reported NOTAMs for that airfield.



MET'MAP, your aeronautical weather chart ! - Copyright ORBIFLY December 2007 - Disclaimer

ORBIFLY MET'MAP TEAM :

Programming & Development : Alexandra Zaïnal
Concept & Development : Baudouin d'Aumeries
Co-Development & Prog : Marc-Olivier Méhu
Technical & hardware support : Manuel Goepfert

Contact : metmap@orbifly.com




SOURCES & CREDITS :

   NOAA